createdAt,value
2018-05-12T00:01:48.711Z,88.30
2018-05-12T00:04:15.146Z,88.53
2018-05-12T00:06:42.195Z,87.77
2018-05-12T00:09:08.641Z,87.99
2018-05-12T00:11:35.088Z,88.04
2018-05-12T00:14:01.618Z,88.26
2018-05-12T00:16:28.008Z,88.16
2018-05-12T00:18:54.467Z,88.12
2018-05-12T00:21:20.953Z,88.23
2018-05-12T00:23:47.396Z,88.17
2018-05-12T00:26:13.805Z,87.96
2018-05-12T00:28:40.326Z,87.83
2018-05-12T00:31:06.948Z,88.34
2018-05-12T00:33:33.334Z,88.25
2018-05-12T00:35:59.764Z,88.50
2018-05-12T00:38:26.190Z,88.40
2018-05-12T00:40:52.668Z,88.39
2018-05-12T00:43:19.056Z,87.69
2018-05-12T00:45:45.563Z,88.42
2018-05-12T00:48:12.043Z,88.33
2018-05-12T00:50:38.796Z,88.24
2018-05-12T00:53:05.280Z,88.46
2018-05-12T00:55:31.656Z,88.69
2018-05-12T00:57:58.074Z,88.57
2018-05-12T01:00:24.445Z,88.40
2018-05-12T01:02:50.977Z,89.00
2018-05-12T01:05:17.417Z,89.09
2018-05-12T01:07:43.844Z,88.59
2018-05-12T01:10:10.319Z,88.43
2018-05-12T01:12:36.802Z,88.18
2018-05-12T01:15:04.177Z,88.47
2018-05-12T01:17:30.771Z,88.75
2018-05-12T01:19:57.222Z,88.83
2018-05-12T01:22:24.249Z,89.08
2018-05-12T01:24:50.740Z,89.38
2018-05-12T01:27:17.154Z,89.12
2018-05-12T01:29:43.594Z,89.25
2018-05-12T01:32:10.030Z,89.41
2018-05-12T01:34:36.496Z,89.68
2018-05-12T01:37:02.967Z,89.38
2018-05-12T01:39:29.539Z,89.19
2018-05-12T01:41:55.963Z,89.05
2018-05-12T01:44:22.459Z,89.35
2018-05-12T01:46:48.915Z,89.76
2018-05-12T01:49:15.510Z,89.59
2018-05-12T01:51:41.889Z,89.06
2018-05-12T01:54:08.400Z,88.94
2018-05-12T01:56:34.970Z,88.69
2018-05-12T01:59:01.448Z,88.55
2018-05-12T02:01:28.020Z,88.82
2018-05-12T02:03:54.433Z,89.10
2018-05-12T02:06:20.956Z,88.52
2018-05-12T02:08:47.557Z,88.64
2018-05-12T02:11:14.096Z,88.58
2018-05-12T02:13:40.553Z,88.73
2018-05-12T02:16:07.056Z,88.94
2018-05-12T02:18:33.555Z,89.05
2018-05-12T02:20:59.980Z,88.95
2018-05-12T02:23:26.509Z,88.95
2018-05-12T02:25:53.029Z,89.23
2018-05-12T02:28:19.535Z,89.62
2018-05-12T02:30:46.037Z,89.27
2018-05-12T02:33:12.539Z,89.74
2018-05-12T02:35:39.017Z,89.32
2018-05-12T02:38:05.575Z,89.41
2018-05-12T02:40:33.019Z,89.54
2018-05-12T02:42:59.463Z,89.41
2018-05-12T02:45:25.919Z,89.73
2018-05-12T02:47:52.466Z,89.91
2018-05-12T02:50:18.916Z,89.49
2018-05-12T02:52:45.361Z,88.86
2018-05-12T02:55:11.825Z,88.73
2018-05-12T02:57:38.323Z,87.99
2018-05-12T03:00:04.808Z,87.82
2018-05-12T03:02:31.896Z,88.39
2018-05-12T03:04:58.335Z,87.74
2018-05-12T03:07:24.822Z,87.66
2018-05-12T03:09:51.336Z,87.78
2018-05-12T03:12:17.841Z,88.40
2018-05-12T03:14:44.256Z,88.78
2018-05-12T03:17:10.772Z,88.15
2018-05-12T03:19:37.186Z,88.09
2018-05-12T03:22:03.649Z,88.02
2018-05-12T03:24:30.144Z,88.52
2018-05-12T03:26:56.641Z,88.18
2018-05-12T03:29:23.133Z,88.10
2018-05-12T03:31:49.609Z,87.67
2018-05-12T03:34:17.101Z,87.78
2018-05-12T03:36:43.601Z,87.44
2018-05-12T03:39:10.085Z,87.90
2018-05-12T03:41:36.638Z,88.05
2018-05-12T03:44:03.131Z,88.19
2018-05-12T03:46:29.710Z,88.08
2018-05-12T03:48:56.203Z,88.61
2018-05-12T03:51:22.731Z,88.51
2018-05-12T03:53:50.029Z,88.37
2018-05-12T03:56:16.490Z,89.00
2018-05-12T03:58:42.919Z,88.52
2018-05-12T04:01:09.326Z,88.75
2018-05-12T04:03:35.804Z,88.55
2018-05-12T04:06:14.322Z,88.32
2018-05-12T04:08:52.852Z,87.29
2018-05-12T04:11:31.473Z,87.03
2018-05-12T04:13:57.918Z,87.11
2018-05-12T04:16:24.448Z,88.17
2018-05-12T04:18:50.899Z,87.26
2018-05-12T04:21:18.235Z,87.31
2018-05-12T04:23:44.768Z,87.90
2018-05-12T04:26:11.269Z,88.28
2018-05-12T04:28:37.707Z,88.50
2018-05-12T04:31:04.379Z,88.25
2018-05-12T04:33:30.841Z,87.86
2018-05-12T04:35:57.284Z,87.25
2018-05-12T04:38:25.367Z,86.93
2018-05-12T04:40:51.840Z,86.81
2018-05-12T04:43:18.366Z,87.54
2018-05-12T04:45:44.741Z,86.81
2018-05-12T04:48:11.172Z,87.09
2018-05-12T04:50:37.806Z,87.13
2018-05-12T04:53:04.211Z,87.01
2018-05-12T04:55:30.750Z,86.87
2018-05-12T04:57:57.166Z,87.09
2018-05-12T05:00:23.772Z,86.64
2018-05-12T05:02:50.279Z,86.99
2018-05-12T05:05:16.750Z,86.94
2018-05-12T05:07:43.234Z,86.29
2018-05-12T05:10:09.751Z,86.28
2018-05-12T05:12:36.169Z,85.99
2018-05-12T05:15:02.660Z,86.16
2018-05-12T05:17:29.097Z,85.98
2018-05-12T05:19:55.547Z,86.38
2018-05-12T05:22:22.176Z,86.13
2018-05-12T05:24:48.597Z,85.76
2018-05-12T05:27:15.159Z,85.25
2018-05-12T05:29:41.668Z,85.33
2018-05-12T05:32:08.341Z,85.17
2018-05-12T05:34:34.926Z,84.81
2018-05-12T05:37:01.397Z,84.38
2018-05-12T05:39:27.934Z,83.66
2018-05-12T05:41:54.369Z,81.64
2018-05-12T05:44:20.873Z,80.44
2018-05-12T05:46:47.621Z,80.88
2018-05-12T05:49:14.951Z,79.58
2018-05-12T05:51:41.530Z,79.71
2018-05-12T05:54:08.279Z,79.92
2018-05-12T05:56:35.202Z,80.23
2018-05-12T05:59:01.905Z,79.66
2018-05-12T06:01:28.352Z,80.16
2018-05-12T06:03:54.965Z,79.13
2018-05-12T06:06:21.527Z,76.33
2018-05-12T06:08:47.924Z,76.10
2018-05-12T06:11:14.414Z,74.77
2018-05-12T06:13:40.834Z,74.29
2018-05-12T06:16:07.430Z,74.29
2018-05-12T06:18:33.877Z,74.02
2018-05-12T06:21:00.344Z,74.80
2018-05-12T06:23:26.760Z,73.34
2018-05-12T06:25:53.207Z,73.32
2018-05-12T06:28:19.720Z,72.36
2018-05-12T06:30:46.105Z,71.67
2018-05-12T06:33:12.510Z,70.41
2018-05-12T06:35:38.934Z,70.97
2018-05-12T06:38:05.432Z,67.71
2018-05-12T06:40:32.148Z,67.30
2018-05-12T06:42:58.549Z,66.40
2018-05-12T06:45:25.498Z,65.53
2018-05-12T06:47:52.038Z,65.56
2018-05-12T06:50:18.688Z,63.52
2018-05-12T06:52:45.134Z,61.33
2018-05-12T06:55:11.596Z,64.21
2018-05-12T06:57:38.038Z,64.21
2018-05-12T07:00:04.524Z,63.39
2018-05-12T07:02:31.066Z,60.90
2018-05-12T07:04:57.475Z,60.98
2018-05-12T07:07:23.923Z,60.43
2018-05-12T07:09:50.446Z,60.31
2018-05-12T07:12:17.069Z,59.76
2018-05-12T07:14:43.599Z,58.31
2018-05-12T07:17:10.090Z,56.53
2018-05-12T07:19:36.601Z,60.29
2018-05-12T07:22:03.091Z,58.13
2018-05-12T07:24:29.694Z,58.15
2018-05-12T07:26:56.192Z,56.08
2018-05-12T07:29:22.623Z,51.09
2018-05-12T07:31:49.027Z,56.72
2018-05-12T07:34:15.693Z,52.50
2018-05-12T07:36:42.149Z,50.54
2018-05-12T07:39:08.698Z,52.61
2018-05-12T07:41:35.121Z,50.49
2018-05-12T07:44:02.209Z,55.89
2018-05-12T07:46:28.774Z,48.89
2018-05-12T07:48:55.358Z,52.89
2018-05-12T07:51:21.875Z,46.86
2018-05-12T07:53:48.354Z,51.56
2018-05-12T07:56:14.838Z,54.26
2018-05-12T07:58:41.341Z,49.66
2018-05-12T08:01:15.233Z,54.30
2018-05-12T08:03:44.024Z,46.83
2018-05-12T08:06:10.871Z,50.22
2018-05-12T08:08:37.345Z,49.08
2018-05-12T08:11:03.912Z,51.41
2018-05-12T08:13:30.415Z,49.39
2018-05-12T08:15:56.812Z,46.83
2018-05-12T08:18:23.203Z,46.81
2018-05-12T08:20:49.674Z,49.65
2018-05-12T08:23:17.157Z,49.16
2018-05-12T08:25:43.620Z,44.43
2018-05-12T08:28:10.129Z,51.60
2018-05-12T08:30:36.633Z,52.43
2018-05-12T08:33:03.101Z,50.74
2018-05-12T08:35:29.626Z,46.25
2018-05-12T08:37:56.087Z,50.89
2018-05-12T08:40:22.678Z,46.03
2018-05-12T08:42:49.103Z,50.03
2018-05-12T08:45:15.544Z,49.35
2018-05-12T08:47:44.812Z,52.83
2018-05-12T08:50:11.356Z,51.62
2018-05-12T08:52:37.750Z,46.64
2018-05-12T08:55:04.171Z,48.09
2018-05-12T08:57:30.590Z,47.84
2018-05-12T09:00:00.495Z,47.57
2018-05-12T09:02:27.917Z,45.85
2018-05-12T09:04:54.504Z,53.87
2018-05-12T09:07:21.066Z,49.69
2018-05-12T09:09:47.460Z,47.98
2018-05-12T09:12:25.630Z,54.07
2018-05-12T09:14:52.917Z,47.05
2018-05-12T09:17:19.273Z,48.72
2018-05-12T09:19:45.734Z,53.03
2018-05-12T09:22:13.191Z,51.43
2018-05-12T09:24:39.726Z,51.61
2018-05-12T09:27:06.238Z,54.65
2018-05-12T09:29:32.820Z,54.75
2018-05-12T09:31:59.200Z,48.12
2018-05-12T09:34:25.694Z,47.23
2018-05-12T09:36:52.198Z,47.85
2018-05-12T09:39:18.607Z,53.94
2018-05-12T09:41:45.274Z,54.56
2018-05-12T09:44:12.714Z,46.51
2018-05-12T09:46:41.437Z,46.22
2018-05-12T09:49:08.375Z,52.72
2018-05-12T09:51:34.831Z,53.25
2018-05-12T09:54:01.313Z,53.02
2018-05-12T09:56:27.794Z,53.11
2018-05-12T09:58:54.187Z,45.32
2018-05-12T10:01:20.759Z,46.60
2018-05-12T10:03:47.208Z,51.20
2018-05-12T10:06:13.667Z,44.83
2018-05-12T10:08:40.149Z,48.51
2018-05-12T10:11:06.653Z,43.21
2018-05-12T10:13:33.027Z,42.74
2018-05-12T10:15:59.754Z,52.48
2018-05-12T10:18:27.832Z,45.12
2018-05-12T10:20:54.663Z,45.34
2018-05-12T10:23:21.167Z,46.24
2018-05-12T10:25:47.953Z,44.36
2018-05-12T10:28:19.253Z,41.15
2018-05-12T10:30:50.156Z,40.18
2018-05-12T10:33:17.635Z,39.61
2018-05-12T10:35:47.266Z,45.62
2018-05-12T10:38:13.880Z,42.58
2018-05-12T10:40:41.258Z,50.59
2018-05-12T10:43:07.764Z,42.73
2018-05-12T10:45:34.170Z,43.46
2018-05-12T10:48:00.667Z,50.63
2018-05-12T10:50:27.082Z,44.36
2018-05-12T10:52:53.629Z,40.15
2018-05-12T10:55:20.176Z,41.20
2018-05-12T10:57:46.648Z,53.18
2018-05-12T11:00:13.180Z,36.45
2018-05-12T11:02:39.637Z,37.58
2018-05-12T11:05:06.045Z,39.92
2018-05-12T11:07:32.505Z,41.32
2018-05-12T11:09:58.998Z,40.52
2018-05-12T11:12:25.402Z,39.37
2018-05-12T11:14:52.047Z,42.22
2018-05-12T11:17:18.578Z,47.62
2018-05-12T11:19:45.082Z,36.97
2018-05-12T11:22:11.677Z,48.90
2018-05-12T11:24:38.173Z,39.85
2018-05-12T11:27:04.602Z,39.15
2018-05-12T11:29:31.173Z,47.88
2018-05-12T11:31:59.521Z,38.72
2018-05-12T11:34:25.951Z,48.70
2018-05-12T11:36:52.622Z,42.55
2018-05-12T11:39:19.288Z,40.50
2018-05-12T11:41:45.833Z,52.14
2018-05-12T11:44:12.315Z,40.64
2018-05-12T11:46:38.839Z,38.85
2018-05-12T11:49:05.307Z,38.83
2018-05-12T11:51:31.784Z,48.58
2018-05-12T11:53:58.255Z,41.05
2018-05-12T11:56:24.687Z,42.37
2018-05-12T11:58:51.187Z,44.61
2018-05-12T12:01:17.864Z,42.58
2018-05-12T12:03:44.539Z,52.17
2018-05-12T12:06:11.069Z,38.35
2018-05-12T12:08:37.784Z,44.79
2018-05-12T12:11:04.545Z,40.10
2018-05-12T12:13:31.887Z,38.55
2018-05-12T12:16:04.081Z,42.31
2018-05-12T12:18:34.558Z,50.18
2018-05-12T12:21:07.655Z,39.08
2018-05-12T12:23:37.930Z,39.98
2018-05-12T12:26:10.838Z,40.11
2018-05-12T12:28:40.502Z,38.78
2018-05-12T12:31:09.450Z,49.93
2018-05-12T12:33:36.102Z,40.74
2018-05-12T12:36:02.794Z,40.93
2018-05-12T12:38:29.417Z,40.95
2018-05-12T12:40:55.857Z,37.56
2018-05-12T12:43:22.438Z,40.01
2018-05-12T12:45:48.960Z,41.17
2018-05-12T12:48:15.458Z,41.12
2018-05-12T12:50:41.884Z,40.28
2018-05-12T12:53:08.428Z,44.72
2018-05-12T12:55:34.922Z,40.86
2018-05-12T12:58:01.403Z,40.25
2018-05-12T13:00:27.937Z,40.87
2018-05-12T13:02:54.403Z,40.83
2018-05-12T13:05:21.190Z,46.89
2018-05-12T13:07:47.917Z,41.50
2018-05-12T13:10:32.810Z,40.11
2018-05-12T13:13:01.233Z,39.64
2018-05-12T13:15:27.731Z,51.76
2018-05-12T13:17:54.227Z,40.58
2018-05-12T13:20:20.696Z,40.58
2018-05-12T13:22:47.344Z,45.57
2018-05-12T13:25:13.872Z,40.73
2018-05-12T13:27:41.919Z,40.78
2018-05-12T13:30:08.424Z,40.24
2018-05-12T13:32:35.131Z,39.81
2018-05-12T13:35:01.652Z,38.87
2018-05-12T13:37:28.066Z,48.86
2018-05-12T13:39:54.663Z,40.49
2018-05-12T13:42:21.167Z,40.43
2018-05-12T13:44:47.589Z,39.81
2018-05-12T13:47:13.994Z,40.85
2018-05-12T13:49:40.473Z,40.33
2018-05-12T13:52:06.991Z,40.85
2018-05-12T13:54:33.448Z,39.63
2018-05-12T13:56:59.827Z,40.43
2018-05-12T13:59:26.369Z,40.42
2018-05-12T14:01:52.809Z,40.29
2018-05-12T14:04:19.238Z,41.23
2018-05-12T14:06:45.771Z,40.79
2018-05-12T14:09:12.256Z,40.19
2018-05-12T14:11:38.707Z,40.89
2018-05-12T14:14:05.128Z,40.14
2018-05-12T14:16:31.552Z,41.87
2018-05-12T14:18:57.996Z,41.00
2018-05-12T14:21:24.605Z,40.32
2018-05-12T14:23:51.080Z,41.19
2018-05-12T14:26:17.639Z,40.67
2018-05-12T14:28:44.080Z,39.74
2018-05-12T14:31:10.460Z,40.98
2018-05-12T14:33:36.946Z,40.55
2018-05-12T14:36:03.432Z,40.40
2018-05-12T14:38:30.114Z,48.04
2018-05-12T14:40:56.746Z,51.12
2018-05-12T14:43:23.192Z,41.23
2018-05-12T14:45:49.600Z,41.02
2018-05-12T14:48:16.117Z,40.90
2018-05-12T14:50:42.582Z,39.87
2018-05-12T14:53:08.977Z,45.68
2018-05-12T14:55:35.614Z,40.28
2018-05-12T14:58:02.050Z,40.00
2018-05-12T15:00:28.561Z,42.24
2018-05-12T15:02:54.972Z,40.54
2018-05-12T15:05:21.442Z,39.49
2018-05-12T15:07:47.843Z,40.26
2018-05-12T15:10:14.411Z,40.66
2018-05-12T15:12:40.914Z,40.36
2018-05-12T15:15:07.393Z,43.68
2018-05-12T15:17:33.854Z,41.17
2018-05-12T15:20:00.343Z,40.08
2018-05-12T15:22:26.888Z,39.56
2018-05-12T15:24:54.252Z,40.24
2018-05-12T15:27:20.712Z,40.40
2018-05-12T15:29:47.093Z,42.32
2018-05-12T15:32:13.470Z,41.83
2018-05-12T15:34:39.944Z,40.86
2018-05-12T15:37:06.403Z,41.97
2018-05-12T15:39:32.759Z,41.11
2018-05-12T15:41:59.338Z,40.68
2018-05-12T15:44:26.126Z,40.24
2018-05-12T15:46:52.731Z,41.41
2018-05-12T15:49:19.262Z,39.81
2018-05-12T15:51:45.701Z,40.04
2018-05-12T15:54:12.313Z,39.52
2018-05-12T15:56:38.845Z,39.34
2018-05-12T15:59:05.390Z,39.42
2018-05-12T16:01:31.834Z,40.50
2018-05-12T16:03:58.236Z,40.15
2018-05-12T16:06:24.614Z,40.25
2018-05-12T16:08:51.028Z,40.77
2018-05-12T16:11:17.429Z,40.86
2018-05-12T16:13:43.938Z,40.85
2018-05-12T16:16:10.347Z,40.92
2018-05-12T16:18:36.831Z,40.78
2018-05-12T16:21:03.387Z,40.52
2018-05-12T16:23:29.815Z,44.13
2018-05-12T16:25:56.311Z,41.10
2018-05-12T16:28:22.735Z,40.87
2018-05-12T16:30:49.197Z,41.20
2018-05-12T16:33:15.609Z,42.48
2018-05-12T16:35:43.299Z,41.65
2018-05-12T16:38:09.791Z,41.45
2018-05-12T16:40:36.328Z,41.99
2018-05-12T16:43:02.917Z,41.80
2018-05-12T16:45:29.341Z,41.43
2018-05-12T16:47:55.921Z,41.80
2018-05-12T16:50:22.436Z,42.39
2018-05-12T16:52:48.962Z,42.39
2018-05-12T16:55:21.790Z,42.92
2018-05-12T16:57:48.384Z,43.64
2018-05-12T17:00:14.867Z,44.13
2018-05-12T17:02:41.311Z,44.48
2018-05-12T17:05:07.692Z,44.66
2018-05-12T17:07:34.169Z,45.39
2018-05-12T17:10:00.580Z,45.30
2018-05-12T17:12:26.990Z,45.85
2018-05-12T17:14:53.361Z,46.89
2018-05-12T17:17:19.852Z,46.88
2018-05-12T17:19:46.351Z,47.44
2018-05-12T17:22:12.724Z,48.15
2018-05-12T17:24:39.163Z,49.21
2018-05-12T17:27:05.626Z,48.41
2018-05-12T17:29:32.041Z,48.69
2018-05-12T17:31:58.601Z,50.41
2018-05-12T17:34:25.074Z,49.95
2018-05-12T17:36:51.426Z,50.03
2018-05-12T17:39:17.855Z,50.90
2018-05-12T17:41:44.206Z,50.98
2018-05-12T17:44:11.406Z,51.45
2018-05-12T17:46:37.853Z,51.87
2018-05-12T17:49:04.325Z,52.04
2018-05-12T17:51:30.810Z,51.58
2018-05-12T17:53:57.326Z,52.28
2018-05-12T17:56:23.730Z,52.51
2018-05-12T17:58:50.125Z,52.37
2018-05-12T18:01:16.613Z,52.14
2018-05-12T18:03:43.002Z,52.05
2018-05-12T18:06:09.514Z,52.31
2018-05-12T18:08:35.837Z,52.98
2018-05-12T18:11:09.106Z,52.41
2018-05-12T18:13:35.580Z,51.95
2018-05-12T18:16:01.963Z,53.21
2018-05-12T18:18:28.382Z,54.03
2018-05-12T18:20:54.888Z,53.66
2018-05-12T18:23:21.324Z,54.69
2018-05-12T18:25:47.836Z,54.28
2018-05-12T18:28:14.247Z,54.05
2018-05-12T18:30:40.636Z,53.94
2018-05-12T18:33:07.122Z,54.21
2018-05-12T18:35:33.581Z,54.20
2018-05-12T18:38:00.103Z,54.51
2018-05-12T18:40:26.464Z,55.28
2018-05-12T18:42:52.884Z,55.20
2018-05-12T18:45:19.272Z,54.99
2018-05-12T18:47:45.725Z,54.37
2018-05-12T18:50:12.043Z,53.94
2018-05-12T18:52:38.344Z,53.75
2018-05-12T18:55:04.788Z,54.47
2018-05-12T18:57:31.231Z,55.41
2018-05-12T18:59:57.572Z,54.80
2018-05-12T19:02:23.885Z,53.79
2018-05-12T19:04:50.238Z,53.73
2018-05-12T19:07:16.694Z,53.42
2018-05-12T19:09:43.049Z,53.41
2018-05-12T19:12:09.374Z,53.75
2018-05-12T19:14:35.747Z,53.56
2018-05-12T19:17:03.218Z,53.36
2018-05-12T19:19:29.545Z,54.33
2018-05-12T19:21:56.016Z,54.26
2018-05-12T19:24:22.337Z,53.45
2018-05-12T19:26:48.735Z,54.51
2018-05-12T19:29:15.173Z,54.02
2018-05-12T19:31:41.603Z,54.24
2018-05-12T19:34:08.019Z,53.36
2018-05-12T19:36:34.405Z,54.42
2018-05-12T19:39:00.908Z,53.74
2018-05-12T19:41:27.328Z,54.35
2018-05-12T19:43:53.621Z,55.19
2018-05-12T19:46:20.042Z,54.84
2018-05-12T19:48:46.387Z,54.32
2018-05-12T19:51:12.836Z,55.12
2018-05-12T19:53:39.215Z,54.57
2018-05-12T19:56:05.565Z,54.70
2018-05-12T19:58:31.994Z,56.03
2018-05-12T20:00:58.386Z,55.42
2018-05-12T20:03:24.751Z,56.01
2018-05-12T20:05:51.150Z,55.75
2018-05-12T20:08:17.447Z,56.14
2018-05-12T20:10:43.780Z,54.47
2018-05-12T20:13:10.195Z,54.39
2018-05-12T20:15:37.376Z,54.14
2018-05-12T20:18:03.809Z,53.14
2018-05-12T20:20:30.253Z,52.89
2018-05-12T20:22:56.714Z,51.55
2018-05-12T20:25:23.017Z,51.43
2018-05-12T20:27:49.403Z,51.81
2018-05-12T20:30:15.818Z,52.04
2018-05-12T20:32:42.291Z,52.47
2018-05-12T20:35:08.706Z,52.10
2018-05-12T20:37:35.157Z,51.60
2018-05-12T20:40:01.429Z,52.29
2018-05-12T20:42:28.829Z,52.27
2018-05-12T20:44:55.158Z,52.19
2018-05-12T20:47:21.601Z,51.86
2018-05-12T20:49:47.948Z,51.74
2018-05-12T20:52:14.411Z,51.84
2018-05-12T20:54:40.750Z,52.40
2018-05-12T20:57:07.168Z,52.04
2018-05-12T20:59:33.526Z,52.73
2018-05-12T21:01:59.894Z,51.95
2018-05-12T21:04:26.326Z,51.61
2018-05-12T21:06:52.693Z,52.20
2018-05-12T21:09:19.111Z,51.58
2018-05-12T21:11:45.505Z,51.14
2018-05-12T21:14:11.984Z,50.86
2018-05-12T21:16:38.385Z,51.33
2018-05-12T21:19:04.759Z,50.52
2018-05-12T21:21:31.082Z,50.74
2018-05-12T21:23:57.527Z,50.13
2018-05-12T21:26:23.910Z,49.85
2018-05-12T21:28:50.250Z,50.11
2018-05-12T21:31:16.647Z,50.49
2018-05-12T21:33:43.122Z,49.74
2018-05-12T21:36:09.515Z,49.80
2018-05-12T21:38:35.821Z,49.03
2018-05-12T21:41:02.271Z,49.63
2018-05-12T21:43:28.581Z,50.40
2018-05-12T21:45:54.926Z,50.25
2018-05-12T21:48:21.304Z,49.12
2018-05-12T21:50:47.594Z,49.63
2018-05-12T21:53:13.971Z,50.24
2018-05-12T21:55:40.385Z,50.34
2018-05-12T21:58:06.747Z,50.84
2018-05-12T22:00:33.115Z,49.76
2018-05-12T22:02:59.417Z,49.92
2018-05-12T22:05:25.868Z,50.20
2018-05-12T22:07:52.335Z,49.87
2018-05-12T22:10:18.657Z,50.17
2018-05-12T22:12:45.049Z,49.93
2018-05-12T22:15:11.394Z,49.47
2018-05-12T22:17:37.760Z,49.87
2018-05-12T22:20:04.303Z,50.03
2018-05-12T22:22:30.649Z,50.28
2018-05-12T22:24:57.114Z,51.16
2018-05-12T22:27:23.542Z,50.60
2018-05-12T22:29:49.849Z,51.22
2018-05-12T22:32:16.460Z,51.03
2018-05-12T22:34:43.302Z,50.67
2018-05-12T22:37:09.738Z,50.57
2018-05-12T22:39:36.078Z,50.85
2018-05-12T22:42:02.353Z,51.04
2018-05-12T22:44:29.043Z,50.89
2018-05-12T22:46:55.734Z,51.32
2018-05-12T22:49:22.087Z,52.02
2018-05-12T22:51:48.492Z,51.50
2018-05-12T22:54:14.942Z,52.27
2018-05-12T22:56:41.407Z,51.47
2018-05-12T22:59:07.727Z,52.12
2018-05-12T23:01:34.122Z,52.20
2018-05-12T23:04:00.607Z,52.73
2018-05-12T23:06:26.991Z,52.51
2018-05-12T23:08:53.466Z,52.04
2018-05-12T23:11:19.899Z,52.29
2018-05-12T23:13:46.377Z,51.94
2018-05-12T23:16:12.769Z,51.78
2018-05-12T23:18:39.118Z,52.17
2018-05-12T23:21:05.719Z,52.71
2018-05-12T23:23:32.193Z,52.31
2018-05-12T23:25:58.616Z,52.17
2018-05-12T23:28:25.096Z,52.55
2018-05-12T23:30:51.529Z,51.59
2018-05-12T23:33:18.257Z,51.84
2018-05-12T23:35:44.682Z,51.20
2018-05-12T23:38:11.109Z,51.32
2018-05-12T23:40:37.614Z,51.10
2018-05-12T23:43:04.019Z,51.28
2018-05-12T23:45:30.411Z,51.66
2018-05-12T23:47:56.899Z,50.93
2018-05-12T23:50:23.387Z,51.68
2018-05-12T23:52:49.754Z,53.35
2018-05-12T23:55:16.223Z,52.37
2018-05-12T23:57:42.672Z,52.34
